createdAt,value
2023-02-02T00:01:36.246Z,99.90
2023-02-02T00:04:05.040Z,99.90
2023-02-02T00:06:34.051Z,99.90
2023-02-02T00:09:04.136Z,99.90
2023-02-02T00:11:32.385Z,99.90
2023-02-02T00:14:02.359Z,99.90
2023-02-02T00:16:42.572Z,99.90
2023-02-02T00:19:13.313Z,99.90
2023-02-02T00:21:41.701Z,99.90
2023-02-02T00:24:10.818Z,99.90
2023-02-02T00:26:39.798Z,96.90
2023-02-02T00:29:15.120Z,94.80
2023-02-02T00:31:43.247Z,91.40
2023-02-02T00:34:12.535Z,80.60
2023-02-02T00:36:40.727Z,81.30
2023-02-02T00:39:10.039Z,78.80
2023-02-02T00:41:38.121Z,81.10
2023-02-02T00:44:23.647Z,94.80
2023-02-02T00:46:52.995Z,96.10
2023-02-02T00:49:21.021Z,94.60
2023-02-02T00:51:48.996Z,94.40
2023-02-02T00:54:17.879Z,90.10
2023-02-02T00:56:45.839Z,71.30
2023-02-02T00:59:13.835Z,66.10
2023-02-02T01:01:41.825Z,62.90
2023-02-02T01:04:11.183Z,62.60
2023-02-02T01:06:39.159Z,52.30
2023-02-02T01:09:07.164Z,52.50
2023-02-02T01:11:35.112Z,51.40
2023-02-02T01:14:04.142Z,53.70
2023-02-02T01:16:32.385Z,48.80
2023-02-02T01:19:00.419Z,42.80
2023-02-02T01:21:29.823Z,47.60
2023-02-02T01:23:57.804Z,45.10
2023-02-02T01:26:25.832Z,47.90
2023-02-02T01:28:53.902Z,51.10
2023-02-02T01:31:22.098Z,48.30
2023-02-02T01:33:50.961Z,47.20
2023-02-02T01:36:20.806Z,48.70
2023-02-02T01:38:50.841Z,63.10
2023-02-02T01:41:21.471Z,43.40
2023-02-02T01:43:56.201Z,39.90
2023-02-02T01:46:26.414Z,35.80
2023-02-02T01:48:59.759Z,36.40
2023-02-02T01:51:32.966Z,34.40
2023-02-02T01:54:07.051Z,33.70
2023-02-02T01:56:38.595Z,30.50
2023-02-02T01:59:07.749Z,27.10
2023-02-02T02:01:35.815Z,25.00
2023-02-02T02:04:03.868Z,25.40
2023-02-02T02:06:31.936Z,21.90
2023-02-02T02:09:03.913Z,19.60
2023-02-02T02:11:32.630Z,20.30
2023-02-02T02:14:21.256Z,18.10
2023-02-02T02:17:11.615Z,13.60
2023-02-02T02:20:29.314Z,16.10
2023-02-02T02:23:37.633Z,17.20
2023-02-02T02:26:35.786Z,15.80
2023-02-02T02:29:27.428Z,12.20
2023-02-02T02:32:15.194Z,11.00
2023-02-02T02:34:53.593Z,9.30
2023-02-02T02:37:31.713Z,10.10
2023-02-02T02:40:06.416Z,6.20
2023-02-02T02:42:38.960Z,4.90
2023-02-02T02:45:09.545Z,1.00
2023-02-02T02:47:40.281Z,1.00
2023-02-02T02:50:09.322Z,1.00
2023-02-02T02:52:38.474Z,1.00
2023-02-02T02:55:10.051Z,1.00
2023-02-02T02:58:06.256Z,1.00
2023-02-02T03:00:47.494Z,1.00
2023-02-02T03:03:30.641Z,1.00
2023-02-02T03:06:06.586Z,1.00
2023-02-02T03:08:40.450Z,1.00
2023-02-02T03:11:11.313Z,1.00
2023-02-02T03:13:41.181Z,1.00
2023-02-02T03:16:09.280Z,1.00
2023-02-02T03:18:39.319Z,1.00
2023-02-02T03:21:07.853Z,1.00
2023-02-02T03:23:36.179Z,1.00
2023-02-02T03:26:04.665Z,1.00
2023-02-02T03:28:33.605Z,1.00
2023-02-02T03:31:03.108Z,1.00
2023-02-02T03:33:34.131Z,1.00
2023-02-02T03:36:03.540Z,1.00
2023-02-02T03:38:31.697Z,1.00
2023-02-02T03:40:59.710Z,1.00
2023-02-02T03:43:27.730Z,1.00
2023-02-02T03:45:59.798Z,1.00
2023-02-02T03:48:28.236Z,1.00
2023-02-02T03:50:56.415Z,1.00
2023-02-02T03:53:26.043Z,1.00
2023-02-02T03:55:54.935Z,1.00
2023-02-02T03:58:23.147Z,1.00
2023-02-02T04:00:51.176Z,1.00
2023-02-02T04:03:19.222Z,1.00
2023-02-02T04:05:51.046Z,1.00
2023-02-02T04:08:19.109Z,1.00
2023-02-02T04:10:48.508Z,1.00
2023-02-02T04:13:16.659Z,1.00
2023-02-02T04:15:44.673Z,1.00
2023-02-02T04:18:12.774Z,1.00
2023-02-02T04:20:40.803Z,1.00
2023-02-02T04:23:08.840Z,1.00
2023-02-02T04:25:36.846Z,1.00
2023-02-02T04:28:06.476Z,1.00
2023-02-02T04:30:34.562Z,1.00
2023-02-02T04:33:02.573Z,1.00
2023-02-02T04:35:30.563Z,1.00
2023-02-02T04:37:58.497Z,1.00
2023-02-02T04:40:26.484Z,1.00
2023-02-02T04:42:54.525Z,1.00
2023-02-02T04:45:24.461Z,1.00
2023-02-02T04:47:52.752Z,1.00
2023-02-02T04:50:20.752Z,1.00
2023-02-02T04:52:48.725Z,1.00
2023-02-02T04:55:16.981Z,1.00
2023-02-02T04:57:45.201Z,1.00
2023-02-02T05:00:14.374Z,1.00
2023-02-02T05:02:44.276Z,1.00
2023-02-02T05:05:15.073Z,1.00
2023-02-02T05:07:43.184Z,1.00
2023-02-02T05:10:12.558Z,1.00
2023-02-02T05:12:40.529Z,1.00
2023-02-02T05:15:09.665Z,1.00
2023-02-02T05:17:37.689Z,1.00
2023-02-02T05:20:07.899Z,1.00
2023-02-02T05:22:36.349Z,1.00
2023-02-02T05:25:04.503Z,1.00
2023-02-02T05:27:32.827Z,1.00
2023-02-02T05:30:00.814Z,1.00
2023-02-02T05:32:29.798Z,1.00
2023-02-02T05:34:57.914Z,1.00
2023-02-02T05:37:27.272Z,1.00
2023-02-02T05:39:55.331Z,1.00
2023-02-02T05:42:23.509Z,1.00
2023-02-02T05:44:51.485Z,1.00
2023-02-02T05:47:19.491Z,1.00
2023-02-02T05:49:47.519Z,1.00
2023-02-02T05:52:18.786Z,1.00
2023-02-02T05:54:48.342Z,1.00
2023-02-02T05:57:16.318Z,1.00
2023-02-02T05:59:44.326Z,1.00
2023-02-02T06:02:12.311Z,1.00
2023-02-02T06:04:40.497Z,1.00
2023-02-02T06:07:08.489Z,1.00
2023-02-02T06:09:36.471Z,1.00
2023-02-02T06:12:06.714Z,1.00
2023-02-02T06:14:34.763Z,1.00
2023-02-02T06:17:02.767Z,1.00
2023-02-02T06:19:30.908Z,1.00
2023-02-02T06:21:58.934Z,1.00
2023-02-02T06:24:27.048Z,1.00
2023-02-02T06:26:55.153Z,1.00
2023-02-02T06:29:24.726Z,1.00
2023-02-02T06:31:52.783Z,1.00
2023-02-02T06:34:20.920Z,1.00
2023-02-02T06:36:48.948Z,1.00
2023-02-02T06:39:17.352Z,1.00
2023-02-02T06:41:46.703Z,1.00
2023-02-02T06:44:15.738Z,1.00
2023-02-02T06:46:45.192Z,1.00
2023-02-02T06:49:13.198Z,1.00
2023-02-02T06:51:41.380Z,1.00
2023-02-02T06:54:09.378Z,1.00
2023-02-02T06:56:37.416Z,1.00
2023-02-02T06:59:05.658Z,1.00
2023-02-02T07:01:33.848Z,1.00
2023-02-02T07:04:03.293Z,1.00
2023-02-02T07:06:31.374Z,1.00
2023-02-02T07:09:01.935Z,1.00
2023-02-02T07:11:31.168Z,1.00
2023-02-02T07:13:59.441Z,1.00
2023-02-02T07:16:27.725Z,1.00
2023-02-02T07:18:56.989Z,1.00
2023-02-02T07:21:28.379Z,1.00
2023-02-02T07:23:56.538Z,1.00
2023-02-02T07:26:24.692Z,1.00
2023-02-02T07:28:53.424Z,1.00
2023-02-02T07:31:24.526Z,1.00
2023-02-02T07:33:53.178Z,1.00
2023-02-02T07:36:23.790Z,1.00
2023-02-02T07:38:55.157Z,1.00
2023-02-02T07:41:23.700Z,1.00
2023-02-02T07:43:52.438Z,1.00
2023-02-02T07:46:21.312Z,1.00
2023-02-02T07:48:49.565Z,1.00
2023-02-02T07:51:19.426Z,1.00
2023-02-02T07:53:49.227Z,1.00
2023-02-02T07:56:22.491Z,1.00
2023-02-02T07:58:53.468Z,1.00
2023-02-02T08:01:23.095Z,1.00
2023-02-02T08:03:53.078Z,1.00
2023-02-02T08:06:23.166Z,1.00
2023-02-02T08:08:52.012Z,1.00
2023-02-02T08:11:23.425Z,1.00
2023-02-02T08:13:53.175Z,1.00
2023-02-02T08:16:22.205Z,1.00
2023-02-02T08:18:50.722Z,1.00
2023-02-02T08:21:19.567Z,1.00
2023-02-02T08:23:48.516Z,1.00
2023-02-02T08:26:18.985Z,1.00
2023-02-02T08:28:50.295Z,1.00
2023-02-02T08:31:21.545Z,1.00
2023-02-02T08:33:49.752Z,1.00
2023-02-02T08:36:19.488Z,1.00
2023-02-02T08:38:48.233Z,1.00
2023-02-02T08:41:18.445Z,1.00
2023-02-02T08:43:48.396Z,1.00
2023-02-02T08:46:18.254Z,1.00
2023-02-02T08:48:47.148Z,1.00
2023-02-02T08:51:18.522Z,1.00
2023-02-02T08:53:47.176Z,1.00
2023-02-02T08:56:17.474Z,1.00
2023-02-02T08:58:47.064Z,1.00
2023-02-02T09:01:18.542Z,1.00
2023-02-02T09:03:47.122Z,1.00
2023-02-02T09:06:16.978Z,1.00
2023-02-02T09:08:45.141Z,1.00
2023-02-02T09:11:15.770Z,1.00
2023-02-02T09:13:46.764Z,1.00
2023-02-02T09:16:18.560Z,1.00
2023-02-02T09:18:47.278Z,1.00
2023-02-02T09:21:17.547Z,1.00
2023-02-02T09:23:46.585Z,1.00
2023-02-02T09:26:16.608Z,1.00
2023-02-02T09:28:46.674Z,1.00
2023-02-02T09:31:15.605Z,1.00
2023-02-02T09:33:45.277Z,1.00
2023-02-02T09:36:14.993Z,1.00
2023-02-02T09:38:44.606Z,1.00
2023-02-02T09:41:32.554Z,1.00
2023-02-02T09:44:09.643Z,1.00
2023-02-02T09:46:48.816Z,1.00
2023-02-02T09:49:23.696Z,1.00
2023-02-02T09:51:58.477Z,1.00
2023-02-02T09:54:34.396Z,1.00
2023-02-02T09:57:06.695Z,1.00
2023-02-02T09:59:39.588Z,1.00
2023-02-02T10:02:17.335Z,1.00
2023-02-02T10:04:52.317Z,1.00
2023-02-02T10:07:24.010Z,1.00
2023-02-02T10:09:57.311Z,1.00
2023-02-02T10:12:36.462Z,1.00
2023-02-02T10:15:17.857Z,1.00
2023-02-02T10:17:52.254Z,1.00
2023-02-02T10:20:40.462Z,1.00
2023-02-02T10:23:16.623Z,1.00
2023-02-02T10:25:53.540Z,1.00
2023-02-02T10:28:27.743Z,1.00
2023-02-02T10:31:02.586Z,1.00
2023-02-02T10:33:38.766Z,1.00
2023-02-02T10:36:17.510Z,1.00
2023-02-02T10:38:53.338Z,1.00
2023-02-02T10:41:28.612Z,1.00
2023-02-02T10:44:09.070Z,1.00
2023-02-02T10:46:41.930Z,1.00
2023-02-02T10:49:20.186Z,1.00
2023-02-02T10:51:58.050Z,1.00
2023-02-02T10:54:58.366Z,1.00
2023-02-02T10:57:42.157Z,1.00
2023-02-02T11:00:22.937Z,1.00
2023-02-02T11:02:52.505Z,1.00
2023-02-02T11:05:41.502Z,1.00
2023-02-02T11:08:16.276Z,1.00
2023-02-02T11:10:46.299Z,1.00
2023-02-02T11:13:20.517Z,1.00
2023-02-02T11:15:48.692Z,1.00
2023-02-02T11:18:29.942Z,1.00
2023-02-02T11:20:59.137Z,1.00
2023-02-02T11:23:30.121Z,1.00
2023-02-02T11:26:00.086Z,1.00
2023-02-02T11:28:32.412Z,1.00
2023-02-02T11:31:00.953Z,1.00
2023-02-02T11:33:31.873Z,1.00
2023-02-02T11:36:01.815Z,1.00
2023-02-02T11:38:31.898Z,1.00
2023-02-02T11:41:03.946Z,1.00
2023-02-02T11:43:34.750Z,1.00
2023-02-02T11:46:05.984Z,1.00
2023-02-02T11:48:37.608Z,1.00
2023-02-02T11:51:08.058Z,1.00
2023-02-02T11:53:44.016Z,1.00
2023-02-02T11:56:21.010Z,1.00
2023-02-02T11:58:51.029Z,1.00
2023-02-02T12:01:26.315Z,1.00
2023-02-02T12:03:56.263Z,1.00
2023-02-02T12:06:26.395Z,1.00
2023-02-02T12:09:01.250Z,1.00
2023-02-02T12:11:49.566Z,1.00
2023-02-02T12:14:31.881Z,1.00
2023-02-02T12:17:14.803Z,1.00
2023-02-02T12:20:04.621Z,1.00
2023-02-02T12:22:47.498Z,1.00
2023-02-02T12:25:38.489Z,1.00
2023-02-02T12:28:18.621Z,1.00
2023-02-02T12:30:53.367Z,8.00
2023-02-02T12:33:29.822Z,68.50
2023-02-02T12:36:26.135Z,99.90
2023-02-02T12:39:09.428Z,99.90
2023-02-02T12:42:04.483Z,99.90
2023-02-02T12:44:41.114Z,99.90
2023-02-02T12:47:19.305Z,99.90
2023-02-02T12:50:04.449Z,99.90
2023-02-02T12:53:07.092Z,99.90
2023-02-02T12:55:45.469Z,99.90
2023-02-02T12:58:29.167Z,99.90
2023-02-02T13:01:24.176Z,99.90
2023-02-02T13:04:15.677Z,99.90
2023-02-02T13:07:30.255Z,99.90
2023-02-02T13:10:10.013Z,99.90
2023-02-02T13:12:44.167Z,99.90
2023-02-02T13:15:19.011Z,99.90
2023-02-02T13:17:51.359Z,99.90
2023-02-02T13:20:25.458Z,99.90
2023-02-02T13:22:58.601Z,99.90
2023-02-02T13:25:29.416Z,99.90
2023-02-02T13:28:02.320Z,99.90
2023-02-02T13:30:35.111Z,99.90
2023-02-02T13:33:07.761Z,99.90
2023-02-02T13:35:40.644Z,99.90
2023-02-02T13:38:17.683Z,99.90
2023-02-02T13:40:46.175Z,99.90
2023-02-02T13:43:24.638Z,99.90
2023-02-02T13:46:06.327Z,99.90
2023-02-02T13:48:43.128Z,99.90
2023-02-02T13:51:39.519Z,99.90
2023-02-02T13:54:45.576Z,99.90
2023-02-02T13:57:27.301Z,99.90
2023-02-02T14:00:04.521Z,99.90
2023-02-02T14:02:41.223Z,99.90
2023-02-02T14:05:18.604Z,99.90
2023-02-02T14:07:48.245Z,99.90
2023-02-02T14:10:26.391Z,99.90
2023-02-02T14:12:56.306Z,99.90
2023-02-02T14:15:39.832Z,99.90
2023-02-02T14:18:09.586Z,99.90
2023-02-02T14:20:46.876Z,99.90
2023-02-02T14:23:53.265Z,99.90
2023-02-02T14:26:42.298Z,99.90
2023-02-02T14:29:36.898Z,99.90
2023-02-02T14:32:34.597Z,99.90
2023-02-02T14:35:42.705Z,99.90
2023-02-02T14:38:18.113Z,99.90
2023-02-02T14:40:53.648Z,99.90
2023-02-02T14:43:49.640Z,99.90
2023-02-02T14:46:33.378Z,99.90
2023-02-02T14:49:14.992Z,99.90
2023-02-02T14:51:52.158Z,99.90
2023-02-02T14:54:28.232Z,99.90
2023-02-02T14:57:00.601Z,99.90
2023-02-02T14:59:30.631Z,99.90
2023-02-02T15:02:07.356Z,99.90
2023-02-02T15:04:41.139Z,99.90
2023-02-02T15:07:46.756Z,99.90
2023-02-02T15:10:54.956Z,99.90
2023-02-02T15:13:25.627Z,99.90
2023-02-02T15:16:04.951Z,99.90
2023-02-02T15:18:40.112Z,99.90
2023-02-02T15:21:10.721Z,99.90
2023-02-02T15:23:43.517Z,99.90
2023-02-02T15:26:20.560Z,99.90
2023-02-02T15:28:53.958Z,99.90
2023-02-02T15:31:30.828Z,81.80
2023-02-02T15:34:02.312Z,60.30
2023-02-02T15:36:33.049Z,47.20
2023-02-02T15:39:04.933Z,7.30
2023-02-02T15:41:37.933Z,1.00
2023-02-02T15:44:19.833Z,1.00
2023-02-02T15:46:49.859Z,1.00
2023-02-02T15:49:34.415Z,1.00
2023-02-02T15:52:12.502Z,1.00
2023-02-02T15:54:49.602Z,1.00
2023-02-02T15:57:28.493Z,1.00
2023-02-02T15:59:57.052Z,1.00
2023-02-02T16:02:34.449Z,1.00
2023-02-02T16:05:02.942Z,1.00
2023-02-02T16:07:33.866Z,1.00
2023-02-02T16:10:07.511Z,1.00
2023-02-02T16:12:41.077Z,1.00
2023-02-02T16:15:21.736Z,1.00
2023-02-02T16:17:59.192Z,1.00
2023-02-02T16:20:28.899Z,1.00
2023-02-02T16:23:01.872Z,1.00
2023-02-02T16:25:33.648Z,1.00
2023-02-02T16:28:03.520Z,1.00
2023-02-02T16:30:33.403Z,1.00
2023-02-02T16:33:29.526Z,1.00
2023-02-02T16:35:58.185Z,1.00
2023-02-02T16:38:31.213Z,1.00
2023-02-02T16:41:07.624Z,1.00
2023-02-02T16:43:37.974Z,1.00
2023-02-02T16:46:10.236Z,1.00
2023-02-02T16:48:42.321Z,1.00
2023-02-02T16:51:23.944Z,1.00
2023-02-02T16:54:01.466Z,1.00
2023-02-02T16:56:34.317Z,1.00
2023-02-02T16:59:06.878Z,1.00
2023-02-02T17:01:40.022Z,1.00
2023-02-02T17:04:19.472Z,1.00
2023-02-02T17:06:52.922Z,1.00
2023-02-02T17:09:35.509Z,1.00
2023-02-02T17:12:09.340Z,1.00
2023-02-02T17:14:38.891Z,1.00
2023-02-02T17:17:08.012Z,1.00
2023-02-02T17:19:37.424Z,1.00
2023-02-02T17:22:08.691Z,1.00
2023-02-02T17:24:36.908Z,1.00
2023-02-02T17:27:05.412Z,1.00
2023-02-02T17:29:35.276Z,1.00
2023-02-02T17:32:03.303Z,1.00
2023-02-02T17:34:31.825Z,1.00
2023-02-02T17:37:01.261Z,1.00
2023-02-02T17:39:29.265Z,1.00
2023-02-02T17:41:58.087Z,1.00
2023-02-02T17:44:27.237Z,1.00
2023-02-02T17:46:55.248Z,1.00
2023-02-02T17:49:23.757Z,1.00
2023-02-02T17:51:51.779Z,1.00
2023-02-02T17:54:21.153Z,1.00
2023-02-02T17:56:49.170Z,1.00
2023-02-02T17:59:17.175Z,1.00
2023-02-02T18:01:45.613Z,1.00
2023-02-02T18:04:15.359Z,1.00
2023-02-02T18:06:43.346Z,1.00
2023-02-02T18:09:11.631Z,1.00
2023-02-02T18:11:42.500Z,1.00
2023-02-02T18:14:11.039Z,1.00
2023-02-02T18:16:39.299Z,1.00
2023-02-02T18:19:07.274Z,1.00
2023-02-02T18:21:35.287Z,1.00
2023-02-02T18:24:03.304Z,1.00
2023-02-02T18:26:32.668Z,1.00
2023-02-02T18:29:02.112Z,1.00
2023-02-02T18:31:30.296Z,1.00
2023-02-02T18:33:58.386Z,1.00
2023-02-02T18:36:26.374Z,1.00
2023-02-02T18:38:54.650Z,1.00
2023-02-02T18:41:22.681Z,1.00
2023-02-02T18:43:52.841Z,1.00
2023-02-02T18:46:22.321Z,1.00
2023-02-02T18:48:50.324Z,1.00
2023-02-02T18:51:21.763Z,1.00
2023-02-02T18:53:49.975Z,1.00
2023-02-02T18:56:18.222Z,1.00
2023-02-02T18:58:46.290Z,1.00
2023-02-02T19:01:16.227Z,1.00
2023-02-02T19:03:49.179Z,1.00
2023-02-02T19:06:34.580Z,1.00
2023-02-02T19:09:02.844Z,1.00
2023-02-02T19:11:35.887Z,1.00
2023-02-02T19:14:07.013Z,1.00
2023-02-02T19:16:35.518Z,1.00
2023-02-02T19:19:09.484Z,1.00
2023-02-02T19:21:37.462Z,1.00
2023-02-02T19:24:10.534Z,1.00
2023-02-02T19:26:40.665Z,1.00
2023-02-02T19:29:17.885Z,1.00
2023-02-02T19:31:46.019Z,1.00
2023-02-02T19:34:20.968Z,1.00
2023-02-02T19:36:51.132Z,1.00
2023-02-02T19:39:22.356Z,1.00
2023-02-02T19:42:00.859Z,1.00
2023-02-02T19:44:32.022Z,1.00
2023-02-02T19:47:00.440Z,1.00
2023-02-02T19:49:34.017Z,1.00
2023-02-02T19:52:04.758Z,1.00
2023-02-02T19:54:37.969Z,1.00
2023-02-02T19:57:17.329Z,1.00
2023-02-02T19:59:48.612Z,1.00
2023-02-02T20:02:43.351Z,1.00
2023-02-02T20:05:20.712Z,1.00
2023-02-02T20:07:49.358Z,1.00
2023-02-02T20:10:21.748Z,1.00
2023-02-02T20:12:50.169Z,1.00
2023-02-02T20:15:27.377Z,1.00
2023-02-02T20:17:58.836Z,1.00
2023-02-02T20:20:31.208Z,1.00
2023-02-02T20:22:59.403Z,1.00
2023-02-02T20:25:29.276Z,1.00
2023-02-02T20:27:59.560Z,1.00
2023-02-02T20:30:30.876Z,1.00
2023-02-02T20:33:01.581Z,1.00
2023-02-02T20:35:37.159Z,1.00
2023-02-02T20:38:18.581Z,1.00
2023-02-02T20:40:46.850Z,1.00
2023-02-02T20:43:15.971Z,1.00
2023-02-02T20:45:44.586Z,1.00
2023-02-02T20:48:14.191Z,1.00
2023-02-02T20:50:44.151Z,1.00
2023-02-02T20:53:14.755Z,1.00
2023-02-02T20:55:42.768Z,1.00
2023-02-02T20:58:11.345Z,1.00
2023-02-02T21:00:40.097Z,1.00
2023-02-02T21:03:08.081Z,1.00
2023-02-02T21:05:36.071Z,1.00
2023-02-02T21:08:07.028Z,1.00
2023-02-02T21:10:35.430Z,1.00
2023-02-02T21:13:03.533Z,1.00
2023-02-02T21:15:31.550Z,1.00
2023-02-02T21:18:00.911Z,1.00
2023-02-02T21:20:29.577Z,1.00
2023-02-02T21:22:58.209Z,1.00
2023-02-02T21:25:28.228Z,1.00
2023-02-02T21:27:56.718Z,99.90
2023-02-02T21:30:25.135Z,99.90
2023-02-02T21:32:53.520Z,99.90
2023-02-02T21:35:21.919Z,99.90
2023-02-02T21:37:54.208Z,99.90
2023-02-02T21:40:30.366Z,99.90
2023-02-02T21:43:00.670Z,99.90
2023-02-02T21:45:34.593Z,99.90
2023-02-02T21:48:06.276Z,99.90
2023-02-02T21:50:37.189Z,99.90
2023-02-02T21:53:20.201Z,99.90
2023-02-02T21:55:53.458Z,99.90
2023-02-02T21:58:25.571Z,99.90
2023-02-02T22:00:54.918Z,99.90
2023-02-02T22:03:31.706Z,99.90
2023-02-02T22:06:24.537Z,99.90
2023-02-02T22:08:54.800Z,99.90
2023-02-02T22:11:29.422Z,99.90
2023-02-02T22:14:03.523Z,99.90
2023-02-02T22:16:37.382Z,99.90
2023-02-02T22:19:23.140Z,99.90
2023-02-02T22:21:51.390Z,99.90
2023-02-02T22:24:19.628Z,99.90
2023-02-02T22:26:49.780Z,99.90
2023-02-02T22:29:21.308Z,99.90
2023-02-02T22:31:49.867Z,99.90
2023-02-02T22:34:18.143Z,99.90
2023-02-02T22:36:46.089Z,99.90
2023-02-02T22:39:14.296Z,99.90
2023-02-02T22:41:42.517Z,99.90
2023-02-02T22:44:11.893Z,99.90
2023-02-02T22:46:39.924Z,99.90
2023-02-02T22:49:09.161Z,99.90
2023-02-02T22:51:37.149Z,99.90
2023-02-02T22:54:05.151Z,99.90
2023-02-02T22:56:33.143Z,99.90
2023-02-02T22:59:01.632Z,99.90
2023-02-02T23:01:31.050Z,99.90
2023-02-02T23:03:59.029Z,99.90
2023-02-02T23:06:27.085Z,99.90
2023-02-02T23:08:55.029Z,99.90
2023-02-02T23:11:22.980Z,99.90
2023-02-02T23:13:50.948Z,99.90
2023-02-02T23:16:18.990Z,99.90
2023-02-02T23:18:48.465Z,99.90
2023-02-02T23:21:17.460Z,99.90
2023-02-02T23:23:45.458Z,99.90
2023-02-02T23:26:13.454Z,99.90
2023-02-02T23:28:41.449Z,99.90
2023-02-02T23:31:09.504Z,99.90
2023-02-02T23:33:37.505Z,99.90
2023-02-02T23:36:07.712Z,99.90
2023-02-02T23:38:35.696Z,99.90
2023-02-02T23:41:03.903Z,99.90
2023-02-02T23:43:32.141Z,99.90
2023-02-02T23:46:00.678Z,99.90
2023-02-02T23:48:28.967Z,99.90
2023-02-02T23:50:57.531Z,99.90
2023-02-02T23:53:27.310Z,99.90
2023-02-02T23:55:56.383Z,99.90
2023-02-02T23:58:24.680Z,99.90
